Ashwaubenon, Wisconsin
Current Conditions -  °F | °C
As of 3:53 PM on Monday 20 Oct 2014 (Local Time) from KGRB Reporting Station
Overcast Overcast  
Wind Chill: 54°   Ceiling: 4600
Heat Index: 54°   Visibility: 10mi
Dew Point: 41°   Wind: 9mph
Humidity: 62%   Direction: 350°N
Pressure: 29.91"   Gusts: NA
Location:  44.48°N, 88.07°W
Report Text: KGRB 202053Z 35008KT 10SM SCT038 BKN046 OVC055 12/05 A2991 RMK AO2 SLP132 T01220050 53011
Loading
Personal Weather Stations






























Interactive Weather Map New forecast layout! Learn more

10-Day Weather Forecast

Advertisements
Track Severe Weather on mobile